Time,TemperatureF,DewpointF,PressureIn,WindDirection,WindDirectionDegrees,WindSpeedMPH,WindSpeedGustMPH,Humidity,HourlyPrecipIn,Conditions,Clouds,dailyrainin,SoftwareType,DateUTC
2013-03-23 00:00:00,35.1,22.6,30.42,SSE,168,0.0,0.0,60,0.00,,,0.00,VWS V13.01,2013-03-23 07:00:00,
2013-03-23 00:05:00,34.9,22.4,30.42,SSE,168,0.0,0.0,60,0.00,,,0.00,VWS V13.01,2013-03-23 07:05:00,
2013-03-23 00:10:00,34.9,22.4,30.42,SSE,168,0.0,0.0,60,0.00,,,0.00,VWS V13.01,2013-03-23 07:10:00,
2013-03-23 00:15:00,34.7,22.2,30.42,SSE,168,0.0,0.0,60,0.00,,,0.00,VWS V13.01,2013-03-23 07:15:00,
2013-03-23 00:20:00,34.5,22.1,30.42,SSE,168,0.0,0.0,60,0.00,,,0.00,VWS V13.01,2013-03-23 07:20:00,
2013-03-23 00:25:00,34.5,22.5,30.42,SSE,168,0.0,0.0,61,0.00,,,0.00,VWS V13.01,2013-03-23 07:25:00,
2013-03-23 00:30:00,34.5,22.9,30.42,SSE,168,0.0,3.1,62,0.00,,,0.00,VWS V13.01,2013-03-23 07:30:00,
2013-03-23 00:35:00,34.5,22.9,30.42,SSE,168,2.7,3.1,62,0.00,,,0.00,VWS V13.01,2013-03-23 07:35:00,
2013-03-23 00:40:00,34.3,22.7,30.42,SSE,168,0.0,0.0,62,0.00,,,0.00,VWS V13.01,2013-03-23 07:40:00,
2013-03-23 00:45:00,34.2,22.5,30.42,SSE,168,0.0,0.0,62,0.00,,,0.00,VWS V13.01,2013-03-23 07:45:00,
2013-03-23 00:50:00,34.0,22.7,30.42,SSE,168,0.0,0.0,63,0.00,,,0.00,VWS V13.01,2013-03-23 07:50:00,
2013-03-23 00:55:00,34.0,22.7,30.42,SSE,168,0.0,0.0,63,0.00,,,0.00,VWS V13.01,2013-03-23 07:55:00,
2013-03-23 01:00:00,33.8,22.5,30.42,SSE,168,0.0,0.0,63,0.00,,,0.00,VWS V13.01,2013-03-23 08:00:00,
2013-03-23 01:05:00,33.8,22.9,30.42,SSE,168,0.0,0.0,64,0.00,,,0.00,VWS V13.01,2013-03-23 08:05:00,
2013-03-23 01:10:00,33.6,22.8,30.42,SSE,168,0.0,0.0,64,0.00,,,0.00,VWS V13.01,2013-03-23 08:10:00,
2013-03-23 01:15:00,33.4,22.6,30.42,SSE,168,0.0,0.0,64,0.00,,,0.00,VWS V13.01,2013-03-23 08:15:00,
2013-03-23 01:20:00,33.4,23.0,30.42,SSE,168,0.0,0.0,65,0.00,,,0.00,VWS V13.01,2013-03-23 08:20:00,
2013-03-23 01:25:00,33.6,23.5,30.42,SSE,168,0.0,0.0,66,0.00,,,0.00,VWS V13.01,2013-03-23 08:25:00,
2013-03-23 01:30:00,33.6,23.5,30.42,SSE,168,3.1,3.1,66,0.00,,,0.00,VWS V13.01,2013-03-23 08:30:00,
2013-03-23 01:35:00,33.6,23.9,30.42,SSE,168,0.0,0.0,67,0.00,,,0.00,VWS V13.01,2013-03-23 08:35:00,
2013-03-23 01:40:00,33.6,24.2,30.42,SSE,168,3.6,3.6,68,0.00,,,0.00,VWS V13.01,2013-03-23 08:40:00,
2013-03-23 01:45:00,33.8,24.7,30.42,SSE,168,0.0,0.0,69,0.00,,,0.00,VWS V13.01,2013-03-23 08:45:00,
2013-03-23 01:50:00,33.8,25.1,30.42,SSE,168,3.1,4.0,70,0.00,,,0.00,VWS V13.01,2013-03-23 08:50:00,
2013-03-23 01:55:00,33.8,25.1,30.42,SSE,168,0.0,0.0,70,0.00,,,0.00,VWS V13.01,2013-03-23 08:55:00,
2013-03-23 02:00:00,34.0,25.2,30.42,SSE,167,0.0,0.0,70,0.00,,,0.00,VWS V13.01,2013-03-23 09:00:00,
2013-03-23 02:05:00,33.8,25.1,30.42,SSE,168,0.0,0.0,70,0.00,,,0.00,VWS V13.01,2013-03-23 09:05:00,
2013-03-23 02:10:00,33.6,24.9,30.42,SSE,167,3.1,3.1,70,0.00,,,0.00,VWS V13.01,2013-03-23 09:10:00,
2013-03-23 02:15:00,33.6,25.2,30.42,SSE,168,3.6,3.6,71,0.00,,,0.00,VWS V13.01,2013-03-23 09:15:00,
2013-03-23 02:20:00,33.6,25.6,30.42,SSE,167,2.2,4.0,72,0.00,,,0.00,VWS V13.01,2013-03-23 09:20:00,
2013-03-23 02:25:00,33.6,25.9,30.42,SSE,168,4.0,4.0,73,0.00,,,0.00,VWS V13.01,2013-03-23 09:25:00,
2013-03-23 02:30:00,33.6,25.9,30.42,South,170,3.6,4.0,73,0.00,,,0.00,VWS V13.01,2013-03-23 09:30:00,
2013-03-23 02:35:00,33.4,26.1,30.42,South,173,0.0,4.9,74,0.00,,,0.00,VWS V13.01,2013-03-23 09:35:00,
2013-03-23 02:40:00,33.4,26.1,30.42,South,180,3.1,5.8,74,0.00,,,0.00,VWS V13.01,2013-03-23 09:40:00,
2013-03-23 02:45:00,33.4,26.4,30.42,SSE,168,0.0,3.1,75,0.00,,,0.00,VWS V13.01,2013-03-23 09:45:00,
2013-03-23 02:50:00,33.3,26.2,30.42,South,169,3.1,3.1,75,0.00,,,0.00,VWS V13.01,2013-03-23 09:50:00,
2013-03-23 02:55:00,33.1,26.0,30.42,South,169,4.0,4.0,75,0.00,,,0.00,VWS V13.01,2013-03-23 09:55:00,
2013-03-23 03:00:00,33.1,26.4,30.42,South,169,0.0,0.0,76,0.00,,,0.00,VWS V13.01,2013-03-23 10:00:00,
2013-03-23 03:05:00,32.9,26.2,30.42,South,169,3.6,3.6,76,0.00,,,0.00,VWS V13.01,2013-03-23 10:05:00,
2013-03-23 03:10:00,32.7,26.0,30.42,South,169,0.0,0.0,76,0.00,,,0.00,VWS V13.01,2013-03-23 10:10:00,
2013-03-23 03:15:00,32.5,25.8,30.42,South,169,3.6,3.6,76,0.00,,,0.00,VWS V13.01,2013-03-23 10:15:00,
2013-03-23 03:20:00,32.5,26.1,30.42,South,169,2.2,3.1,77,0.00,,,0.00,VWS V13.01,2013-03-23 10:20:00,
2013-03-23 03:24:00,32.7,26.6,30.42,South,169,3.1,4.0,78,0.00,,,0.00,VWS V13.01,2013-03-23 10:24:00,
2013-03-23 03:29:00,32.9,26.8,30.42,SSE,159,2.2,3.1,78,0.00,,,0.00,VWS V13.01,2013-03-23 10:29:00,
2013-03-23 03:34:00,32.9,26.8,30.39,SSE,164,2.7,4.0,78,0.00,,,0.00,VWS V13.01,2013-03-23 10:34:00,
2013-03-23 03:39:00,33.1,27.3,30.39,SSE,160,3.1,4.9,79,0.00,,,0.00,VWS V13.01,2013-03-23 10:39:00,
2013-03-23 03:44:00,33.1,27.3,30.39,SSE,166,3.6,4.0,79,0.00,,,0.00,VWS V13.01,2013-03-23 10:44:00,
2013-03-23 03:49:00,33.1,27.6,30.39,SSE,158,4.9,4.9,80,0.00,,,0.00,VWS V13.01,2013-03-23 10:49:00,
2013-03-23 03:54:00,33.3,27.8,30.39,SSE,157,2.7,3.1,80,0.00,,,0.00,VWS V13.01,2013-03-23 10:54:00,
2013-03-23 03:59:00,33.3,28.1,30.39,SSE,147,3.6,4.0,81,0.00,,,0.00,VWS V13.01,2013-03-23 10:59:00,
2013-03-23 04:04:00,33.3,28.1,30.39,SSE,147,2.2,4.0,81,0.00,,,0.00,VWS V13.01,2013-03-23 11:04:00,
2013-03-23 04:09:00,33.4,28.2,30.39,SSE,147,0.0,2.2,81,0.00,,,0.00,VWS V13.01,2013-03-23 11:09:00,
2013-03-23 04:14:00,33.4,28.2,30.39,SSE,147,0.0,0.0,81,0.00,,,0.00,VWS V13.01,2013-03-23 11:14:00,
2013-03-23 04:19:00,33.6,28.4,30.39,SE,142,5.4,5.8,81,0.00,,,0.00,VWS V13.01,2013-03-23 11:19:00,
2013-03-23 04:24:00,33.6,28.7,30.39,SE,124,6.3,7.2,82,0.00,,,0.00,VWS V13.01,2013-03-23 11:24:00,
2013-03-23 04:29:00,33.8,29.2,30.39,SE,137,4.9,7.6,83,0.00,,,0.00,VWS V13.01,2013-03-23 11:29:00,
2013-03-23 04:34:00,33.8,29.5,30.39,SE,133,4.9,5.4,84,0.00,,,0.00,VWS V13.01,2013-03-23 11:34:00,
2013-03-23 04:39:00,33.8,29.5,30.39,SE,136,6.3,6.3,84,0.00,,,0.00,VWS V13.01,2013-03-23 11:39:00,
2013-03-23 04:44:00,33.8,29.5,30.39,SE,125,4.5,4.9,84,0.00,,,0.00,VWS V13.01,2013-03-23 11:44:00,
2013-03-23 04:49:00,34.0,29.7,30.39,SE,127,4.0,5.4,84,0.00,,,0.00,VWS V13.01,2013-03-23 11:49:00,
2013-03-23 04:54:00,34.2,29.8,30.39,SSE,148,3.6,4.0,84,0.00,,,0.00,VWS V13.01,2013-03-23 11:54:00,
2013-03-23 04:59:00,34.3,30.0,30.39,SSE,150,2.7,4.9,84,0.00,,,0.00,VWS V13.01,2013-03-23 11:59:00,
2013-03-23 05:04:00,34.3,29.7,30.39,SE,130,7.6,7.6,83,0.00,,,0.00,VWS V13.01,2013-03-23 12:04:00,
2013-03-23 05:09:00,34.3,29.7,30.39,SSE,154,3.6,4.0,83,0.00,,,0.00,VWS V13.01,2013-03-23 12:09:00,
2013-03-23 05:14:00,34.3,29.4,30.39,SSE,162,2.7,2.7,82,0.00,,,0.00,VWS V13.01,2013-03-23 12:14:00,
2013-03-23 05:19:00,34.5,29.3,30.39,SSE,162,0.0,3.1,81,0.00,,,0.00,VWS V13.01,2013-03-23 12:19:00,
2013-03-23 05:24:00,34.5,29.3,30.39,SSE,168,3.1,4.9,81,0.00,,,0.00,VWS V13.01,2013-03-23 12:24:00,
2013-03-23 05:29:00,34.5,29.0,30.39,South,179,3.1,7.6,80,0.00,,,0.00,VWS V13.01,2013-03-23 12:29:00,
2013-03-23 05:34:00,34.5,29.0,30.39,South,179,3.1,4.0,80,0.00,,,0.00,VWS V13.01,2013-03-23 12:34:00,
2013-03-23 05:39:00,34.5,28.7,30.39,SSE,150,3.6,4.0,79,0.00,,,0.00,VWS V13.01,2013-03-23 12:39:00,
2013-03-23 05:44:00,34.7,28.9,30.39,SSE,166,4.0,4.0,79,0.00,,,0.00,VWS V13.01,2013-03-23 12:44:00,
2013-03-23 05:49:00,34.7,28.9,30.39,SSE,166,2.7,2.7,79,0.00,,,0.00,VWS V13.01,2013-03-23 12:49:00,
2013-03-23 05:54:00,34.9,28.7,30.39,SSE,166,0.0,0.0,78,0.00,,,0.00,VWS V13.01,2013-03-23 12:54:00,
2013-03-23 05:59:00,34.9,28.7,30.39,SSE,166,0.0,0.0,78,0.00,,,0.00,VWS V13.01,2013-03-23 12:59:00,
2013-03-23 06:04:00,34.9,28.7,30.39,SSE,166,0.0,0.0,78,0.00,,,0.00,VWS V13.01,2013-03-23 13:04:00,
2013-03-23 06:09:00,34.9,28.7,30.39,SSE,166,2.2,3.1,78,0.00,,,0.00,VWS V13.01,2013-03-23 13:09:00,
2013-03-23 06:14:00,34.9,28.4,30.39,SSE,166,2.7,2.7,77,0.00,,,0.00,VWS V13.01,2013-03-23 13:14:00,
2013-03-23 06:19:00,34.9,28.4,30.39,SSE,166,2.7,2.7,77,0.00,,,0.00,VWS V13.01,2013-03-23 13:19:00,
2013-03-23 06:24:00,34.7,28.2,30.39,SSE,167,2.7,3.6,77,0.00,,,0.00,VWS V13.01,2013-03-23 13:24:00,
2013-03-23 06:29:00,34.5,27.8,30.39,SSE,166,3.6,3.6,76,0.00,,,0.00,VWS V13.01,2013-03-23 13:29:00,
2013-03-23 06:34:00,34.5,27.4,30.39,SSE,166,2.7,3.1,75,0.00,,,0.00,VWS V13.01,2013-03-23 13:34:00,
2013-03-23 06:39:00,34.5,27.4,30.39,SSE,166,3.1,3.1,75,0.00,,,0.00,VWS V13.01,2013-03-23 13:39:00,
2013-03-23 06:44:00,34.5,27.1,30.39,SSE,152,7.2,7.2,74,0.00,,,0.00,VWS V13.01,2013-03-23 13:44:00,
2013-03-23 06:49:00,34.3,25.9,30.39,SSE,147,4.0,4.0,71,0.00,,,0.00,VWS V13.01,2013-03-23 13:49:00,
2013-03-23 06:54:00,34.3,25.9,30.39,SSE,147,3.6,4.0,71,0.00,,,0.00,VWS V13.01,2013-03-23 13:54:00,
2013-03-23 06:59:00,34.3,25.2,30.39,SSE,147,4.0,4.0,69,0.00,,,0.00,VWS V13.01,2013-03-23 13:59:00,
2013-03-23 07:04:00,34.5,25.4,30.39,SSE,147,2.7,3.6,69,0.00,,,0.00,VWS V13.01,2013-03-23 14:04:00,
2013-03-23 07:09:00,34.5,25.4,30.39,SSE,147,3.1,3.1,69,0.00,,,0.00,VWS V13.01,2013-03-23 14:09:00,
2013-03-23 07:14:00,34.5,24.7,30.39,SSE,147,4.0,4.0,67,0.00,,,0.00,VWS V13.01,2013-03-23 14:14:00,
2013-03-23 07:19:00,34.5,24.7,30.39,SSE,148,3.6,5.8,67,0.00,,,0.00,VWS V13.01,2013-03-23 14:19:00,
2013-03-23 07:24:00,34.7,23.8,30.39,SE,141,5.4,5.4,64,0.00,,,0.00,VWS V13.01,2013-03-23 14:24:00,
2013-03-23 07:29:00,34.9,23.2,30.39,SE,142,6.3,6.3,62,0.00,,,0.00,VWS V13.01,2013-03-23 14:29:00,
2013-03-23 07:34:00,35.1,22.6,30.39,SE,141,2.7,3.6,60,0.00,,,0.00,VWS V13.01,2013-03-23 14:34:00,
2013-03-23 07:39:00,35.4,22.5,30.39,SSE,167,3.6,5.8,59,0.00,,,0.00,VWS V13.01,2013-03-23 14:39:00,
2013-03-23 07:44:00,36.0,22.6,30.39,SSE,164,3.1,4.0,58,0.00,,,0.00,VWS V13.01,2013-03-23 14:44:00,
2013-03-23 07:49:00,35.8,21.6,30.39,SSE,166,3.6,3.6,56,0.00,,,0.00,VWS V13.01,2013-03-23 14:49:00,
2013-03-23 07:54:00,35.8,21.6,30.39,SSE,165,2.7,5.4,56,0.00,,,0.00,VWS V13.01,2013-03-23 14:54:00,
2013-03-23 07:59:00,35.8,21.2,30.39,SSE,165,3.1,3.1,55,0.00,,,0.00,VWS V13.01,2013-03-23 14:59:00,
2013-03-23 08:04:00,36.0,21.4,30.39,SSE,165,2.7,3.1,55,0.00,,,0.00,VWS V13.01,2013-03-23 15:04:00,
2013-03-23 08:12:00,36.1,21.5,30.39,SSE,165,4.0,4.0,55,0.00,,,0.00,VWS V13.01,2013-03-23 15:12:00,
2013-03-23 08:17:00,36.3,21.7,30.39,SSE,165,2.7,4.0,55,0.00,,,0.00,VWS V13.01,2013-03-23 15:17:00,
2013-03-23 08:22:00,36.7,21.6,30.39,SSE,167,3.6,4.9,54,0.00,,,0.00,VWS V13.01,2013-03-23 15:22:00,
2013-03-23 08:27:00,36.7,21.2,30.39,SSE,149,5.4,8.1,53,0.00,,,0.00,VWS V13.01,2013-03-23 15:27:00,
2013-03-23 08:32:00,36.9,20.9,30.39,SSE,161,4.0,4.0,52,0.00,,,0.00,VWS V13.01,2013-03-23 15:32:00,
2013-03-23 08:37:00,37.0,20.6,30.39,SSE,161,3.1,6.3,51,0.00,,,0.00,VWS V13.01,2013-03-23 15:37:00,
2013-03-23 08:42:00,37.2,20.3,30.39,SE,131,6.3,7.6,50,0.00,,,0.00,VWS V13.01,2013-03-23 15:42:00,
2013-03-23 08:47:00,37.6,20.2,30.39,ESE,107,5.4,5.4,49,0.00,,,0.00,VWS V13.01,2013-03-23 15:47:00,
2013-03-23 08:52:00,37.8,20.3,30.39,ESE,114,4.9,5.4,49,0.00,,,0.00,VWS V13.01,2013-03-23 15:52:00,
2013-03-23 08:57:00,37.8,20.3,30.39,SE,130,6.3,6.3,49,0.00,,,0.00,VWS V13.01,2013-03-23 15:57:00,
2013-03-23 09:02:00,37.9,20.5,30.39,ESE,120,7.6,7.6,49,0.00,,,0.00,VWS V13.01,2013-03-23 16:02:00,
2013-03-23 09:07:00,38.1,20.2,30.39,SE,131,4.0,4.0,48,0.00,,,0.00,VWS V13.01,2013-03-23 16:07:00,
2013-03-23 09:12:00,38.3,20.4,30.39,SSE,155,3.6,3.6,48,0.00,,,0.00,VWS V13.01,2013-03-23 16:12:00,
2013-03-23 09:17:00,38.8,21.3,30.39,SSE,155,3.1,3.6,49,0.00,,,0.00,VWS V13.01,2013-03-23 16:17:00,
2013-03-23 09:22:00,39.4,21.3,30.39,SSE,154,2.7,2.7,48,0.00,,,0.00,VWS V13.01,2013-03-23 16:22:00,
2013-03-23 09:27:00,39.7,20.7,30.39,ESE,111,5.4,5.4,46,0.00,,,0.00,VWS V13.01,2013-03-23 16:27:00,
2013-03-23 09:32:00,39.9,19.2,30.39,East,100,3.1,4.0,43,0.00,,,0.00,VWS V13.01,2013-03-23 16:32:00,
2013-03-23 09:37:00,40.5,19.2,30.39,ESE,115,10.1,10.1,42,0.00,,,0.00,VWS V13.01,2013-03-23 16:37:00,
2013-03-23 09:42:00,40.6,19.4,30.39,ESE,114,4.0,4.0,42,0.00,,,0.00,VWS V13.01,2013-03-23 16:42:00,
2013-03-23 09:47:00,41.2,19.3,30.39,SE,129,2.7,2.7,41,0.00,,,0.00,VWS V13.01,2013-03-23 16:47:00,
2013-03-23 09:52:00,41.5,19.6,30.39,SE,145,2.2,4.0,41,0.00,,,0.00,VWS V13.01,2013-03-23 16:52:00,
2013-03-23 09:57:00,41.7,19.2,30.39,ESE,109,3.1,4.9,40,0.00,,,0.00,VWS V13.01,2013-03-23 16:57:00,
2013-03-23 10:02:00,42.3,19.7,30.39,ESE,109,3.1,3.1,40,0.00,,,0.00,VWS V13.01,2013-03-23 17:02:00,
2013-03-23 10:07:00,42.4,19.8,30.39,ESE,110,4.5,4.5,40,0.00,,,0.00,VWS V13.01,2013-03-23 17:07:00,
2013-03-23 10:12:00,42.4,19.2,30.39,ESE,107,4.0,4.0,39,0.00,,,0.00,VWS V13.01,2013-03-23 17:12:00,
2013-03-23 10:17:00,42.8,19.6,30.39,East,98,6.3,6.3,39,0.00,,,0.00,VWS V13.01,2013-03-23 17:17:00,
2013-03-23 10:22:00,43.2,19.9,30.39,ESE,102,0.0,5.4,39,0.00,,,0.00,VWS V13.01,2013-03-23 17:22:00,
2013-03-23 10:27:00,43.5,20.2,30.39,East,94,6.3,6.3,39,0.00,,,0.00,VWS V13.01,2013-03-23 17:27:00,
2013-03-23 10:32:00,43.9,20.5,30.39,ESE,108,6.3,6.7,39,0.00,,,0.00,VWS V13.01,2013-03-23 17:32:00,
2013-03-23 10:37:00,44.4,20.4,30.39,ESE,112,6.7,6.7,38,0.00,,,0.00,VWS V13.01,2013-03-23 17:37:00,
2013-03-23 10:42:00,44.8,20.7,30.39,ESE,112,2.7,2.7,38,0.00,,,0.00,VWS V13.01,2013-03-23 17:42:00,
2013-03-23 10:47:00,45.1,21.1,30.39,ESE,109,6.3,6.3,38,0.00,,,0.00,VWS V13.01,2013-03-23 17:47:00,
2013-03-23 10:52:00,44.8,20.7,30.39,ESE,107,8.1,8.1,38,0.00,,,0.00,VWS V13.01,2013-03-23 17:52:00,
2013-03-23 10:57:00,45.5,21.4,30.39,ESE,110,5.4,5.8,38,0.00,,,0.00,VWS V13.01,2013-03-23 17:57:00,
2013-03-23 11:02:00,45.9,21.7,30.39,East,85,3.6,4.0,38,0.00,,,0.00,VWS V13.01,2013-03-23 18:02:00,
2013-03-23 11:07:00,46.6,22.4,30.39,ESE,117,10.5,10.5,38,0.00,,,0.00,VWS V13.01,2013-03-23 18:07:00,
2013-03-23 11:12:00,47.1,22.8,30.39,ENE,73,6.3,6.3,38,0.00,,,0.00,VWS V13.01,2013-03-23 18:12:00,
2013-03-23 11:17:00,46.6,22.4,30.39,ESE,116,4.9,4.9,38,0.00,,,0.00,VWS V13.01,2013-03-23 18:17:00,
2013-03-23 11:22:00,47.3,23.0,30.36,SSE,154,4.0,4.9,38,0.00,,,0.00,VWS V13.01,2013-03-23 18:22:00,
2013-03-23 11:27:00,47.8,22.9,30.36,SE,127,6.3,6.3,37,0.00,,,0.00,VWS V13.01,2013-03-23 18:27:00,
2013-03-23 11:32:00,48.0,23.0,30.36,East,93,7.6,7.6,37,0.00,,,0.00,VWS V13.01,2013-03-23 18:32:00,
2013-03-23 11:37:00,48.4,23.3,30.39,SE,124,2.7,4.0,37,0.00,,,0.00,VWS V13.01,2013-03-23 18:37:00,
2013-03-23 11:42:00,49.1,24.0,30.39,East,94,7.2,7.2,37,0.00,,,0.00,VWS V13.01,2013-03-23 18:42:00,
2013-03-23 11:47:00,49.5,24.3,30.39,NE,52,6.3,6.3,37,0.00,,,0.00,VWS V13.01,2013-03-23 18:47:00,
2013-03-23 11:52:00,48.6,23.5,30.36,ENE,57,8.3,11.0,37,0.00,,,0.00,VWS V13.01,2013-03-23 18:52:00,
2013-03-23 11:57:00,49.6,24.5,30.36,NE,48,8.3,8.7,37,0.00,,,0.00,VWS V13.01,2013-03-23 18:57:00,
2013-03-23 12:02:00,50.0,24.8,30.36,ENE,77,4.0,7.2,37,0.00,,,0.00,VWS V13.01,2013-03-23 19:02:00,
2013-03-23 12:08:00,50.5,25.2,30.36,ENE,57,8.7,8.7,37,0.00,,,0.00,VWS V13.01,2013-03-23 19:08:00,
2013-03-23 12:13:00,50.5,25.2,30.36,ESE,114,7.2,7.2,37,0.00,,,0.00,VWS V13.01,2013-03-23 19:13:00,
2013-03-23 12:18:00,51.3,25.9,30.36,East,92,5.4,5.8,37,0.00,,,0.00,VWS V13.01,2013-03-23 19:18:00,
2013-03-23 12:23:00,51.3,25.9,30.36,ENE,62,4.0,6.3,37,0.00,,,0.00,VWS V13.01,2013-03-23 19:23:00,
2013-03-23 12:28:00,51.8,25.7,30.36,NE,49,3.1,3.1,36,0.00,,,0.00,VWS V13.01,2013-03-23 19:28:00,
2013-03-23 12:33:00,52.0,25.9,30.36,ENE,68,8.1,8.1,36,0.00,,,0.00,VWS V13.01,2013-03-23 19:33:00,
2013-03-23 12:38:00,51.6,26.2,30.36,ESE,105,3.6,5.4,37,0.00,,,0.00,VWS V13.01,2013-03-23 19:38:00,
2013-03-23 12:43:00,51.3,25.9,30.36,East,97,3.1,4.9,37,0.00,,,0.00,VWS V13.01,2013-03-23 19:43:00,
2013-03-23 12:48:00,52.0,25.9,30.36,NW,316,5.4,5.4,36,0.00,,,0.00,VWS V13.01,2013-03-23 19:48:00,
2013-03-23 12:53:00,51.8,25.7,30.36,North,353,6.3,7.6,36,0.00,,,0.00,VWS V13.01,2013-03-23 19:53:00,
2013-03-23 12:58:00,52.0,25.9,30.36,North,0,4.0,6.3,36,0.00,,,0.00,VWS V13.01,2013-03-23 19:58:00,
2013-03-23 13:03:00,51.6,26.2,30.36,NW,308,8.3,8.3,37,0.00,,,0.00,VWS V13.01,2013-03-23 20:03:00,
2013-03-23 13:08:00,51.1,25.7,30.33,North,0,7.6,8.1,37,0.00,,,0.00,VWS V13.01,2013-03-23 20:08:00,
2013-03-23 13:13:00,50.5,25.2,30.33,North,357,5.8,8.3,37,0.00,,,0.00,VWS V13.01,2013-03-23 20:13:00,
2013-03-23 13:18:00,51.1,25.7,30.33,NNW,336,6.7,8.7,37,0.00,,,0.00,VWS V13.01,2013-03-23 20:18:00,
2013-03-23 13:23:00,50.5,25.2,30.33,NW,308,6.3,8.3,37,0.00,,,0.00,VWS V13.01,2013-03-23 20:23:00,
2013-03-23 13:28:00,50.2,24.9,30.33,North,7,11.9,11.9,37,0.00,,,0.00,VWS V13.01,2013-03-23 20:28:00,
2013-03-23 13:33:00,50.4,25.1,30.33,NW,322,5.4,8.7,37,0.00,,,0.00,VWS V13.01,2013-03-23 20:33:00,
2013-03-23 13:38:00,50.9,25.6,30.33,North,357,8.3,11.4,37,0.00,,,0.00,VWS V13.01,2013-03-23 20:38:00,
2013-03-23 13:43:00,50.5,25.2,30.33,NE,38,5.4,12.3,37,0.00,,,0.00,VWS V13.01,2013-03-23 20:43:00,
2013-03-23 13:48:00,50.5,25.2,30.33,North,357,9.6,11.0,37,0.00,,,0.00,VWS V13.01,2013-03-23 20:48:00,
2013-03-23 13:53:00,50.2,24.9,30.33,NE,45,6.3,9.2,37,0.00,,,0.00,VWS V13.01,2013-03-23 20:53:00,
2013-03-23 13:58:00,50.9,25.6,30.33,North,7,8.7,8.7,37,0.00,,,0.00,VWS V13.01,2013-03-23 20:58:00,
2013-03-23 14:03:00,51.8,25.7,30.33,NNW,335,8.1,11.0,36,0.00,,,0.00,VWS V13.01,2013-03-23 21:03:00,
2013-03-23 14:08:00,52.3,26.2,30.33,NE,38,8.3,13.2,36,0.00,,,0.00,VWS V13.01,2013-03-23 21:08:00,
2013-03-23 14:13:00,52.3,26.2,30.33,North,0,8.1,8.7,36,0.00,,,0.00,VWS V13.01,2013-03-23 21:13:00,
2013-03-23 14:18:00,51.4,26.0,30.33,NNE,13,11.9,13.6,37,0.00,,,0.00,VWS V13.01,2013-03-23 21:18:00,
2013-03-23 14:23:00,52.0,25.9,30.33,NNE,18,8.1,8.7,36,0.00,,,0.00,VWS V13.01,2013-03-23 21:23:00,
2013-03-23 14:28:00,51.4,26.0,30.33,North,1,8.7,8.7,37,0.00,,,0.00,VWS V13.01,2013-03-23 21:28:00,
2013-03-23 14:33:00,51.6,26.2,30.33,North,5,8.7,8.7,37,0.00,,,0.00,VWS V13.01,2013-03-23 21:33:00,
2013-03-23 14:38:00,50.9,25.6,30.33,North,5,10.5,13.2,37,0.00,,,0.00,VWS V13.01,2013-03-23 21:38:00,
2013-03-23 14:43:00,50.4,25.1,30.33,NNE,30,12.3,12.8,37,0.00,,,0.00,VWS V13.01,2013-03-23 21:43:00,
2013-03-23 14:48:00,50.0,24.8,30.33,ENE,68,10.5,13.2,37,0.00,,,0.00,VWS V13.01,2013-03-23 21:48:00,
2013-03-23 14:53:00,50.2,24.9,30.33,NNE,30,10.5,17.4,37,0.00,,,0.00,VWS V13.01,2013-03-23 21:53:00,
2013-03-23 14:58:00,50.5,25.2,30.33,North,357,5.4,13.2,37,0.00,,,0.00,VWS V13.01,2013-03-23 21:58:00,
2013-03-23 15:03:00,50.2,24.9,30.33,North,10,5.8,6.7,37,0.00,,,0.00,VWS V13.01,2013-03-23 22:03:00,
2013-03-23 15:08:00,50.2,24.9,30.33,NE,54,6.3,8.1,37,0.00,,,0.00,VWS V13.01,2013-03-23 22:08:00,
2013-03-23 15:13:00,49.8,24.6,30.33,ENE,57,11.0,13.2,37,0.00,,,0.00,VWS V13.01,2013-03-23 22:13:00,
2013-03-23 15:18:00,50.2,24.9,30.33,NNE,20,4.5,9.2,37,0.00,,,0.00,VWS V13.01,2013-03-23 22:18:00,
2013-03-23 15:23:00,50.9,25.6,30.30,NNE,18,8.3,10.1,37,0.00,,,0.00,VWS V13.01,2013-03-23 22:23:00,
2013-03-23 15:28:00,50.7,25.4,30.30,NE,47,8.3,8.3,37,0.00,,,0.00,VWS V13.01,2013-03-23 22:28:00,
2013-03-23 15:33:00,50.7,25.4,30.30,North,5,8.3,10.5,37,0.00,,,0.00,VWS V13.01,2013-03-23 22:33:00,
2013-03-23 15:38:00,50.2,24.9,30.30,NE,56,13.2,13.2,37,0.00,,,0.00,VWS V13.01,2013-03-23 22:38:00,
2013-03-23 15:43:00,50.0,24.8,30.30,NE,37,15.4,15.4,37,0.00,,,0.00,VWS V13.01,2013-03-23 22:43:00,
2013-03-23 15:48:00,50.2,24.9,30.30,NW,312,4.9,10.5,37,0.00,,,0.00,VWS V13.01,2013-03-23 22:48:00,
2013-03-23 15:53:00,50.9,25.6,30.30,ENE,65,5.8,8.7,37,0.00,,,0.00,VWS V13.01,2013-03-23 22:53:00,
2013-03-23 15:58:00,50.7,25.4,30.30,NNE,20,12.3,13.6,37,0.00,,,0.00,VWS V13.01,2013-03-23 22:58:00,
2013-03-23 16:03:00,50.7,25.4,30.30,NE,39,15.9,15.9,37,0.00,,,0.00,VWS V13.01,2013-03-23 23:03:00,
2013-03-23 16:08:00,50.2,24.9,30.30,NNE,21,6.3,6.3,37,0.00,,,0.00,VWS V13.01,2013-03-23 23:08:00,
2013-03-23 16:13:00,49.3,24.1,30.30,North,353,8.3,13.2,37,0.00,,,0.00,VWS V13.01,2013-03-23 23:13:00,
2013-03-23 16:18:00,49.3,24.1,30.30,North,1,8.1,8.1,37,0.00,,,0.00,VWS V13.01,2013-03-23 23:18:00,
2013-03-23 16:23:00,50.2,24.9,30.30,NE,56,8.1,10.5,37,0.00,,,0.00,VWS V13.01,2013-03-23 23:23:00,
2013-03-23 16:28:00,49.6,24.5,30.30,ENE,66,10.1,11.0,37,0.00,,,0.00,VWS V13.01,2013-03-23 23:28:00,
2013-03-23 16:33:00,49.6,24.5,30.30,NE,56,8.1,8.1,37,0.00,,,0.00,VWS V13.01,2013-03-23 23:33:00,
2013-03-23 16:38:00,50.2,24.9,30.30,ENE,69,8.1,8.1,37,0.00,,,0.00,VWS V13.01,2013-03-23 23:38:00,
2013-03-23 16:43:00,50.0,24.8,30.30,NE,46,11.0,13.2,37,0.00,,,0.00,VWS V13.01,2013-03-23 23:43:00,
2013-03-23 16:48:00,50.0,24.8,30.30,NE,39,10.1,10.1,37,0.00,,,0.00,VWS V13.01,2013-03-23 23:48:00,
2013-03-23 16:53:00,49.8,24.6,30.30,ENE,67,11.0,11.0,37,0.00,,,0.00,VWS V13.01,2013-03-23 23:53:00,
2013-03-23 16:58:00,50.0,24.8,30.30,ENE,74,7.6,10.1,37,0.00,,,0.00,VWS V13.01,2013-03-23 23:58:00,
2013-03-23 17:03:00,49.5,24.3,30.30,NE,47,10.5,17.4,37,0.00,,,0.00,VWS V13.01,2013-03-24 00:03:00,
2013-03-23 17:08:00,48.7,23.6,30.30,NE,43,14.5,14.5,37,0.00,,,0.00,VWS V13.01,2013-03-24 00:08:00,
2013-03-23 17:13:00,48.6,23.5,30.30,NNE,29,15.0,15.0,37,0.00,,,0.00,VWS V13.01,2013-03-24 00:13:00,
2013-03-23 17:18:00,47.7,22.7,30.30,NE,52,8.7,12.8,37,0.00,,,0.00,VWS V13.01,2013-03-24 00:18:00,
2013-03-23 17:23:00,48.4,23.3,30.30,NNE,30,7.2,7.2,37,0.00,,,0.00,VWS V13.01,2013-03-24 00:23:00,
2013-03-23 17:28:00,48.4,23.3,30.30,North,9,3.6,13.2,37,0.00,,,0.00,VWS V13.01,2013-03-24 00:28:00,
2013-03-23 17:33:00,48.7,23.6,30.30,North,7,9.2,9.2,37,0.00,,,0.00,VWS V13.01,2013-03-24 00:33:00,
2013-03-23 17:38:00,48.6,23.5,30.30,NNE,29,8.3,13.2,37,0.00,,,0.00,VWS V13.01,2013-03-24 00:38:00,
2013-03-23 17:43:00,48.9,23.8,30.30,East,92,8.3,10.1,37,0.00,,,0.00,VWS V13.01,2013-03-24 00:43:00,
2013-03-23 17:48:00,48.6,23.5,30.30,ENE,62,12.8,15.4,37,0.00,,,0.00,VWS V13.01,2013-03-24 00:48:00,
2013-03-23 17:53:00,48.4,23.3,30.30,NNE,23,11.4,11.4,37,0.00,,,0.00,VWS V13.01,2013-03-24 00:53:00,
2013-03-23 17:58:00,48.2,23.2,30.30,ENE,64,9.2,12.3,37,0.00,,,0.00,VWS V13.01,2013-03-24 00:58:00,
2013-03-23 18:03:00,48.4,23.3,30.30,WNW,295,10.5,15.0,37,0.00,,,0.00,VWS V13.01,2013-03-24 01:03:00,
2013-03-23 18:08:00,48.2,23.2,30.27,NE,34,3.6,8.3,37,0.00,,,0.00,VWS V13.01,2013-03-24 01:08:00,
2013-03-23 18:13:00,48.0,23.0,30.27,NE,46,5.4,5.8,37,0.00,,,0.00,VWS V13.01,2013-03-24 01:13:00,
2013-03-23 18:18:00,48.0,23.0,30.27,NE,53,5.8,11.0,37,0.00,,,0.00,VWS V13.01,2013-03-24 01:18:00,
2013-03-23 18:23:00,47.7,22.7,30.27,NE,36,4.0,9.2,37,0.00,,,0.00,VWS V13.01,2013-03-24 01:23:00,
2013-03-23 18:28:00,47.3,22.4,30.27,NNE,12,9.6,9.6,37,0.00,,,0.00,VWS V13.01,2013-03-24 01:28:00,
2013-03-23 18:33:00,46.9,22.0,30.27,ENE,73,10.5,10.5,37,0.00,,,0.00,VWS V13.01,2013-03-24 01:33:00,
2013-03-23 18:38:00,46.8,21.9,30.27,ENE,61,7.6,10.5,37,0.00,,,0.00,VWS V13.01,2013-03-24 01:38:00,
2013-03-23 18:43:00,46.6,21.7,30.27,East,81,6.3,11.0,37,0.00,,,0.00,VWS V13.01,2013-03-24 01:43:00,
2013-03-23 18:48:00,46.6,21.7,30.27,North,3,7.6,8.7,37,0.00,,,0.00,VWS V13.01,2013-03-24 01:48:00,
2013-03-23 18:53:00,46.4,21.6,30.27,ENE,60,8.7,8.7,37,0.00,,,0.00,VWS V13.01,2013-03-24 01:53:00,
2013-03-23 18:58:00,46.2,22.0,30.27,NE,34,15.0,15.0,38,0.00,,,0.00,VWS V13.01,2013-03-24 01:58:00,
2013-03-23 19:03:00,46.0,21.9,30.27,NE,47,8.7,8.7,38,0.00,,,0.00,VWS V13.01,2013-03-24 02:03:00,
2013-03-23 19:08:00,45.9,21.7,30.27,ENE,71,8.3,10.5,38,0.00,,,0.00,VWS V13.01,2013-03-24 02:08:00,
2013-03-23 19:13:00,45.7,21.5,30.27,ENE,68,11.4,11.4,38,0.00,,,0.00,VWS V13.01,2013-03-24 02:13:00,
2013-03-23 19:18:00,45.5,21.4,30.27,NE,38,8.1,8.7,38,0.00,,,0.00,VWS V13.01,2013-03-24 02:18:00,
2013-03-23 19:23:00,45.3,21.2,30.27,ENE,63,6.7,6.7,38,0.00,,,0.00,VWS V13.01,2013-03-24 02:23:00,
2013-03-23 19:28:00,45.1,21.1,30.27,ENE,59,4.9,8.1,38,0.00,,,0.00,VWS V13.01,2013-03-24 02:28:00,
2013-03-23 19:33:00,45.0,20.9,30.27,NE,56,4.9,5.8,38,0.00,,,0.00,VWS V13.01,2013-03-24 02:33:00,
2013-03-23 19:38:00,44.8,20.7,30.30,East,88,4.9,6.3,38,0.00,,,0.00,VWS V13.01,2013-03-24 02:38:00,
2013-03-23 19:43:00,44.8,20.7,30.30,East,88,4.0,4.0,38,0.00,,,0.00,VWS V13.01,2013-03-24 02:43:00,
2013-03-23 19:48:00,44.6,20.6,30.30,East,88,3.6,3.6,38,0.00,,,0.00,VWS V13.01,2013-03-24 02:48:00,
2013-03-23 19:53:00,44.6,20.6,30.27,East,88,0.0,0.0,38,0.00,,,0.00,VWS V13.01,2013-03-24 02:53:00,
2013-03-23 19:58:00,44.6,20.6,30.27,East,88,0.0,0.0,38,0.00,,,0.00,VWS V13.01,2013-03-24 02:58:00,
2013-03-23 20:03:00,44.4,20.4,30.27,East,88,0.0,0.0,38,0.00,,,0.00,VWS V13.01,2013-03-24 03:03:00,
2013-03-23 20:08:00,44.2,20.3,30.27,East,88,0.0,0.0,38,0.00,,,0.00,VWS V13.01,2013-03-24 03:08:00,
2013-03-23 20:13:00,44.1,20.1,30.27,East,88,0.0,0.0,38,0.00,,,0.00,VWS V13.01,2013-03-24 03:13:00,
2013-03-23 20:18:00,43.9,19.9,30.27,East,88,0.0,0.0,38,0.00,,,0.00,VWS V13.01,2013-03-24 03:18:00,
2013-03-23 20:23:00,43.7,19.8,30.27,East,88,0.0,0.0,38,0.00,,,0.00,VWS V13.01,2013-03-24 03:23:00,
2013-03-23 20:28:00,43.5,19.6,30.27,East,88,0.0,0.0,38,0.00,,,0.00,VWS V13.01,2013-03-24 03:28:00,
2013-03-23 20:33:00,43.3,19.5,30.27,East,88,0.0,0.0,38,0.00,,,0.00,VWS V13.01,2013-03-24 03:33:00,
2013-03-23 20:38:00,43.2,19.3,30.27,East,88,0.0,0.0,38,0.00,,,0.00,VWS V13.01,2013-03-24 03:38:00,
2013-03-23 20:43:00,43.0,19.7,30.27,East,88,0.0,0.0,39,0.00,,,0.00,VWS V13.01,2013-03-24 03:43:00,
2013-03-23 20:48:00,42.8,19.6,30.27,East,88,0.0,0.0,39,0.00,,,0.00,VWS V13.01,2013-03-24 03:48:00,
2013-03-23 20:53:00,42.6,19.4,30.27,East,88,0.0,0.0,39,0.00,,,0.00,VWS V13.01,2013-03-24 03:53:00,
2013-03-23 20:58:00,42.4,19.2,30.27,East,88,0.0,0.0,39,0.00,,,0.00,VWS V13.01,2013-03-24 03:58:00,
2013-03-23 21:00:00,42.3,19.1,30.27,East,88,0.0,0.0,39,0.00,,,0.00,VWS V13.01,2013-03-24 04:00:00,
2013-03-23 21:05:00,42.1,18.9,30.27,East,88,0.0,0.0,39,0.00,,,0.00,VWS V13.01,2013-03-24 04:05:00,
2013-03-23 21:10:00,42.1,18.9,30.27,East,88,0.0,0.0,39,0.00,,,0.00,VWS V13.01,2013-03-24 04:10:00,
2013-03-23 21:15:00,41.9,18.8,30.27,East,88,0.0,0.0,39,0.00,,,0.00,VWS V13.01,2013-03-24 04:15:00,
2013-03-23 21:20:00,41.7,18.6,30.27,East,88,0.0,0.0,39,0.00,,,0.00,VWS V13.01,2013-03-24 04:20:00,
2013-03-23 21:25:00,41.5,18.4,30.27,East,88,0.0,0.0,39,0.00,,,0.00,VWS V13.01,2013-03-24 04:25:00,
2013-03-23 21:30:00,41.4,18.3,30.27,East,88,0.0,0.0,39,0.00,,,0.00,VWS V13.01,2013-03-24 04:30:00,
2013-03-23 21:35:00,41.4,18.9,30.30,East,88,0.0,0.0,40,0.00,,,0.00,VWS V13.01,2013-03-24 04:35:00,
2013-03-23 21:40:00,41.0,18.5,30.30,East,88,0.0,0.0,40,0.00,,,0.00,VWS V13.01,2013-03-24 04:40:00,
2013-03-23 21:45:00,41.0,18.5,30.30,East,88,0.0,0.0,40,0.00,,,0.00,VWS V13.01,2013-03-24 04:45:00,
2013-03-23 21:50:00,41.0,18.5,30.30,East,88,0.0,0.0,40,0.00,,,0.00,VWS V13.01,2013-03-24 04:50:00,
2013-03-23 21:55:00,40.8,19.0,30.30,East,88,0.0,0.0,41,0.00,,,0.00,VWS V13.01,2013-03-24 04:55:00,
2013-03-23 22:00:00,40.6,18.8,30.30,East,88,0.0,0.0,41,0.00,,,0.00,VWS V13.01,2013-03-24 05:00:00,
2013-03-23 22:05:00,40.5,19.2,30.30,East,88,0.0,0.0,42,0.00,,,0.00,VWS V13.01,2013-03-24 05:05:00,
2013-03-23 22:10:00,40.6,19.4,30.30,East,88,0.0,0.0,42,0.00,,,0.00,VWS V13.01,2013-03-24 05:10:00,
2013-03-23 22:15:00,40.5,19.7,30.30,East,88,0.0,0.0,43,0.00,,,0.00,VWS V13.01,2013-03-24 05:15:00,
2013-03-23 22:20:00,40.5,20.3,30.27,East,88,0.0,0.0,44,0.00,,,0.00,VWS V13.01,2013-03-24 05:20:00,
2013-03-23 22:25:00,40.5,20.3,30.27,East,88,0.0,0.0,44,0.00,,,0.00,VWS V13.01,2013-03-24 05:25:00,
2013-03-23 22:30:00,40.3,20.1,30.27,East,88,0.0,0.0,44,0.00,,,0.00,VWS V13.01,2013-03-24 05:30:00,
2013-03-23 22:35:00,40.3,20.6,30.30,East,88,0.0,0.0,45,0.00,,,0.00,VWS V13.01,2013-03-24 05:35:00,
2013-03-23 22:40:00,40.3,20.6,30.30,East,88,0.0,0.0,45,0.00,,,0.00,VWS V13.01,2013-03-24 05:40:00,
2013-03-23 22:45:00,40.3,21.2,30.30,East,88,0.0,0.0,46,0.00,,,0.00,VWS V13.01,2013-03-24 05:45:00,
2013-03-23 22:50:00,40.1,21.0,30.27,East,88,0.0,0.0,46,0.00,,,0.00,VWS V13.01,2013-03-24 05:50:00,
2013-03-23 22:55:00,40.3,21.7,30.27,East,88,0.0,0.0,47,0.00,,,0.00,VWS V13.01,2013-03-24 05:55:00,
2013-03-23 23:00:00,40.1,22.0,30.27,East,88,0.0,0.0,48,0.00,,,0.00,VWS V13.01,2013-03-24 06:00:00,
2013-03-23 23:05:00,40.1,22.5,30.27,East,88,0.0,0.0,49,0.00,,,0.00,VWS V13.01,2013-03-24 06:05:00,
2013-03-23 23:10:00,39.9,22.3,30.27,East,88,0.0,0.0,49,0.00,,,0.00,VWS V13.01,2013-03-24 06:10:00,
2013-03-23 23:15:00,39.7,22.2,30.27,East,88,0.0,0.0,49,0.00,,,0.00,VWS V13.01,2013-03-24 06:15:00,
2013-03-23 23:20:00,39.7,22.2,30.27,East,88,0.0,0.0,49,0.00,,,0.00,VWS V13.01,2013-03-24 06:20:00,
2013-03-23 23:25:00,39.7,22.2,30.27,East,88,0.0,0.0,49,0.00,,,0.00,VWS V13.01,2013-03-24 06:25:00,
2013-03-23 23:30:00,39.7,22.2,30.27,East,88,0.0,0.0,49,0.00,,,0.00,VWS V13.01,2013-03-24 06:30:00,
2013-03-23 23:35:00,39.6,22.5,30.27,East,88,0.0,0.0,50,0.00,,,0.00,VWS V13.01,2013-03-24 06:35:00,
2013-03-23 23:40:00,39.4,22.3,30.27,East,88,0.0,0.0,50,0.00,,,0.00,VWS V13.01,2013-03-24 06:40:00,
2013-03-23 23:45:00,39.4,22.3,30.27,East,88,2.2,3.1,50,0.00,,,0.00,VWS V13.01,2013-03-24 06:45:00,
2013-03-23 23:50:00,39.2,22.1,30.27,East,88,0.0,3.1,50,0.00,,,0.00,VWS V13.01,2013-03-24 06:50:00,
2013-03-23 23:55:00,39.2,22.6,30.27,East,88,2.2,3.1,51,0.00,,,0.00,VWS V13.01,2013-03-24 06:55:00,